Time;durP1;ratioP1;P1;durP2;ratioP2;P2;SDS_P1;SDS_P2;PMS_P1;PMS_P2;Temp;Humidity;BMP_temperature;BMP_pressure;BME280_temperature;BME280_humidity;BME280_pressure;Samples;Min_cycle;Max_cycle;Signal;HPM_P1;HPM_P2
2021/11/19 00:01:05;;;;;;;13.80;8.50;;;;;;;8.37;76.51;100289.48;130108;1286;98002;-80
2021/11/19 00:04:08;;;;;;;12.80;8.30;;;;;;;8.35;76.61;100276.73;130032;1286;98802;-82
2021/11/19 00:07:11;;;;;;;13.00;8.50;;;;;;;8.33;76.82;100256.19;130103;1286;98008;-82
2021/11/19 00:10:14;;;;;;;11.40;6.70;;;;;;;8.29;76.68;100251.00;129971;1287;98751;-82
2021/11/19 00:13:17;;;;;;;12.50;7.30;;;;;;;8.27;77.08;100249.55;130212;1285;98773;-82
2021/11/19 00:16:23;;;;;;;14.00;7.20;;;;;;;8.25;77.09;100245.48;130235;1285;98696;-81
2021/11/19 00:19:27;;;;;;;9.80;7.30;;;;;;;8.26;77.22;100245.73;130305;1285;98015;-81
2021/11/19 00:22:30;;;;;;;12.90;7.60;;;;;;;8.24;77.33;100245.92;130297;1281;98679;-82
2021/11/19 00:25:34;;;;;;;12.30;8.00;;;;;;;8.23;77.39;100243.52;130310;1285;99071;-81
2021/11/19 00:28:38;;;;;;;15.00;9.60;;;;;;;8.21;77.71;100238.42;130350;1284;98884;-80
2021/11/19 00:31:42;;;;;;;14.30;7.30;;;;;;;8.11;77.86;100244.62;130418;1285;98907;-81
2021/11/19 00:34:48;;;;;;;11.50;7.30;;;;;;;8.10;77.75;100236.29;130414;1285;98776;-80
2021/11/19 00:37:56;;;;;;;11.80;7.70;;;;;;;8.14;77.88;100230.39;130426;1284;99086;-80
2021/11/19 00:41:07;;;;;;;10.80;7.40;;;;;;;8.17;77.86;100233.66;131065;1285;99087;-82
2021/11/19 00:44:11;;;;;;;11.80;7.20;;;;;;;8.19;77.78;100233.81;131739;1284;98996;-84
2021/11/19 00:47:15;;;;;;;8.50;6.00;;;;;;;8.16;77.59;100227.04;131635;1285;97907;-82
2021/11/19 00:50:18;;;;;;;12.70;7.00;;;;;;;8.16;77.67;100219.20;131779;1286;99088;-81
2021/11/19 00:53:21;;;;;;;9.30;6.50;;;;;;;8.21;77.85;100218.25;131514;1285;97992;-81
2021/11/19 00:56:36;;;;;;;10.80;6.60;;;;;;;8.24;77.92;100213.52;130741;1284;98071;-81
2021/11/19 00:59:41;;;;;;;8.30;6.70;;;;;;;8.23;77.91;100208.77;130161;1285;98990;-79
2021/11/19 01:02:45;;;;;;;9.90;6.70;;;;;;;8.20;77.92;100208.19;130366;1285;99436;-83
2021/11/19 01:05:51;;;;;;;8.30;5.80;;;;;;;8.15;78.05;100200.52;130547;1287;98651;-83
2021/11/19 01:08:54;;;;;;;9.10;6.30;;;;;;;8.15;78.25;100203.86;130539;1284;98015;-83
2021/11/19 01:12:00;;;;;;;10.30;7.40;;;;;;;8.16;78.09;100213.16;130756;1285;99073;-83
2021/11/19 01:15:08;;;;;;;8.70;6.80;;;;;;;8.18;78.48;100206.27;130732;1285;98079;-83
2021/11/19 01:18:14;;;;;;;11.60;6.50;;;;;;;8.14;78.52;100203.27;130516;1285;99045;-83
2021/11/19 01:21:21;;;;;;;7.60;5.60;;;;;;;8.10;78.82;100189.13;130634;1285;98225;-83
2021/11/19 01:24:25;;;;;;;8.50;6.20;;;;;;;8.09;78.72;100178.60;130505;1284;99088;-80
2021/11/19 01:27:32;;;;;;;8.80;6.40;;;;;;;8.13;78.77;100177.16;131486;1281;98607;-80
2021/11/19 01:30:39;;;;;;;8.40;5.90;;;;;;;8.15;78.97;100183.30;131563;1287;97937;-80
2021/11/19 01:33:43;;;;;;;8.00;5.90;;;;;;;8.13;78.92;100173.94;131067;1285;98946;-80
2021/11/19 01:37:11;;;;;;;9.30;6.10;;;;;;;8.09;79.21;100161.60;131540;1284;98073;-80
2021/11/19 01:40:35;;;;;;;7.60;4.80;;;;;;;8.04;79.13;100157.23;130741;1284;98135;-79
2021/11/19 01:43:44;;;;;;;5.70;4.70;;;;;;;8.04;79.29;100162.57;130695;1284;98003;-82
2021/11/19 01:46:50;;;;;;;6.30;4.90;;;;;;;8.04;79.38;100161.11;130229;1283;124672;-82
2021/11/19 01:49:54;;;;;;;6.70;5.00;;;;;;;8.06;79.16;100164.14;130407;1285;99069;-82
2021/11/19 01:53:04;;;;;;;5.90;4.50;;;;;;;8.05;79.34;100151.25;130444;1285;97989;-80
2021/11/19 01:56:11;;;;;;;5.40;4.50;;;;;;;8.06;79.27;100144.47;130431;1285;98003;-79
2021/11/19 01:59:16;;;;;;;5.30;4.50;;;;;;;8.07;79.55;100147.91;130044;1287;123280;-80
2021/11/19 02:02:22;;;;;;;6.20;4.30;;;;;;;8.10;79.31;100144.25;130086;1285;99071;-82
2021/11/19 02:05:28;;;;;;;6.40;5.30;;;;;;;8.14;79.54;100145.37;130717;1285;98029;-79
2021/11/19 02:08:37;;;;;;;5.20;4.40;;;;;;;8.12;79.65;100142.69;130428;1285;99096;-81
2021/11/19 02:11:50;;;;;;;5.20;4.00;;;;;;;8.09;79.68;100145.76;130837;1285;98096;-81
2021/11/19 02:15:04;;;;;;;4.50;4.00;;;;;;;8.04;80.15;100148.67;130634;1284;98809;-80
2021/11/19 02:18:11;;;;;;;5.30;4.20;;;;;;;8.01;80.47;100152.33;131146;1284;97986;-81
2021/11/19 02:21:19;;;;;;;5.10;4.00;;;;;;;8.04;80.22;100145.67;129921;1285;98834;-79
2021/11/19 02:24:25;;;;;;;4.70;3.80;;;;;;;8.02;80.26;100149.56;130014;1285;98314;-82
2021/11/19 02:27:34;;;;;;;5.20;3.30;;;;;;;7.99;79.99;100145.63;130068;1286;98774;-82
2021/11/19 02:30:48;;;;;;;4.30;3.70;;;;;;;8.01;80.20;100136.08;130199;1285;97983;-82
2021/11/19 02:33:54;;;;;;;5.90;3.80;;;;;;;8.06;80.25;100136.85;129992;1287;98971;-83
2021/11/19 02:37:01;;;;;;;5.00;4.00;;;;;;;8.10;80.08;100129.73;129952;1285;98090;-81
2021/11/19 02:40:12;;;;;;;4.40;3.10;;;;;;;8.08;80.43;100136.50;130123;1285;99005;-83
2021/11/19 02:43:22;;;;;;;4.90;2.90;;;;;;;8.08;80.22;100140.42;130830;1285;98960;-80
2021/11/19 02:46:28;;;;;;;4.60;3.10;;;;;;;8.12;80.20;100140.52;131311;1285;97927;-79
2021/11/19 02:49:32;;;;;;;4.00;2.90;;;;;;;8.17;80.41;100141.66;130848;1286;97976;-80
2021/11/19 02:52:37;;;;;;;4.70;3.60;;;;;;;8.20;80.49;100144.41;130849;1285;98737;-82
2021/11/19 02:55:43;;;;;;;4.60;3.10;;;;;;;8.19;80.53;100148.23;130212;1284;98760;-83
2021/11/19 02:58:50;;;;;;;3.20;2.70;;;;;;;8.16;80.94;100137.73;130088;1285;98348;-83
2021/11/19 03:01:56;;;;;;;2.60;2.20;;;;;;;8.13;80.90;100134.98;130400;1285;98982;-80
2021/11/19 03:05:04;;;;;;;3.00;2.60;;;;;;;8.11;80.86;100126.95;130141;1285;98072;-81
2021/11/19 03:08:07;;;;;;;3.30;2.50;;;;;;;8.15;80.99;100125.60;130262;1285;98243;-82
2021/11/19 03:11:12;;;;;;;4.00;2.50;;;;;;;8.16;81.11;100117.54;130343;1285;98075;-82
2021/11/19 03:14:17;;;;;;;2.60;2.40;;;;;;;8.14;81.09;100113.39;130026;1285;98414;-82
2021/11/19 03:17:21;;;;;;;2.30;2.00;;;;;;;8.11;81.33;100113.34;130381;1285;98534;-82
2021/11/19 03:20:26;;;;;;;3.60;2.90;;;;;;;8.12;81.26;100110.27;130094;1285;98969;-82
2021/11/19 03:23:31;;;;;;;2.40;2.10;;;;;;;8.18;81.13;100116.47;130059;1285;99082;-81
2021/11/19 03:26:35;;;;;;;2.70;2.50;;;;;;;8.19;81.03;100113.52;130019;1284;99067;-82
2021/11/19 03:29:38;;;;;;;2.80;2.10;;;;;;;8.17;81.08;100107.79;129986;1285;99069;-82
2021/11/19 03:32:41;;;;;;;1.90;1.70;;;;;;;8.19;81.19;100107.63;130092;1285;98926;-82
2021/11/19 03:35:45;;;;;;;2.30;1.90;;;;;;;8.20;81.37;100109.53;130351;1285;97999;-82
2021/11/19 03:38:50;;;;;;;2.90;2.60;;;;;;;8.18;81.39;100112.92;130097;1285;98995;-82
2021/11/19 03:41:56;;;;;;;2.30;2.10;;;;;;;8.19;81.51;100115.13;130237;1285;98101;-82
2021/11/19 03:45:03;;;;;;;2.60;2.20;;;;;;;8.18;81.54;100112.52;130207;1284;99069;-80
2021/11/19 03:48:06;;;;;;;2.60;2.10;;;;;;;8.18;81.64;100116.66;130175;1285;98997;-78
2021/11/19 03:51:17;;;;;;;2.90;2.20;;;;;;;8.20;81.84;100124.25;130314;1282;98057;-80
2021/11/19 03:54:23;;;;;;;2.40;2.20;;;;;;;8.20;81.82;100115.48;130287;1285;98076;-75
2021/11/19 03:57:27;;;;;;;2.80;2.50;;;;;;;8.26;81.81;100128.25;130362;1285;121575;-84
2021/11/19 04:00:33;;;;;;;3.20;2.40;;;;;;;8.25;81.90;100121.99;130551;1285;99104;-84
2021/11/19 04:03:36;;;;;;;2.90;2.40;;;;;;;8.24;81.93;100115.01;130494;1284;99122;-85
2021/11/19 04:06:40;;;;;;;3.20;2.80;;;;;;;8.28;82.19;100113.25;130665;1285;98012;-83
2021/11/19 04:09:45;;;;;;;3.50;3.20;;;;;;;8.33;81.95;100121.99;130213;1287;98083;-82
2021/11/19 04:12:48;;;;;;;3.30;3.00;;;;;;;8.37;82.05;100113.82;130713;1285;97999;-82
2021/11/19 04:15:55;;;;;;;4.10;3.70;;;;;;;8.41;82.15;100120.55;130466;1284;98091;-80
2021/11/19 04:18:58;;;;;;;4.20;3.10;;;;;;;8.36;82.35;100123.12;130357;1285;98903;-83
2021/11/19 04:22:05;;;;;;;3.70;3.40;;;;;;;8.35;82.36;100116.09;130169;1284;121725;-83
2021/11/19 04:25:14;;;;;;;5.30;3.60;;;;;;;8.41;82.44;100122.30;130324;1285;98012;-83
2021/11/19 04:28:17;;;;;;;4.30;3.90;;;;;;;8.39;82.70;100114.33;130170;1285;98973;-83
2021/11/19 04:31:26;;;;;;;5.00;3.50;;;;;;;8.38;83.11;100131.66;130413;1284;98712;-81
2021/11/19 04:34:29;;;;;;;4.70;3.70;;;;;;;8.34;83.33;100137.29;130093;1285;98353;-82
2021/11/19 04:37:33;;;;;;;4.80;4.30;;;;;;;8.29;84.36;100151.75;130283;1284;98419;-82
2021/11/19 04:40:44;;;;;;;6.70;5.20;;;;;;;8.29;83.87;100150.41;130426;1284;98515;-82
2021/11/19 04:43:48;;;;;;;7.20;6.00;;;;;;;8.33;83.49;100146.12;130027;1285;103209;-82
2021/11/19 04:46:51;;;;;;;123.20;42.10;;;;;;;8.37;83.92;100151.38;130292;1285;98999;-82
2021/11/19 04:49:54;;;;;;;61.00;41.90;;;;;;;8.39;83.48;100142.33;130228;1285;98021;-81
2021/11/19 04:52:58;;;;;;;9.10;7.00;;;;;;;8.47;83.39;100137.73;130237;1285;98111;-82
2021/11/19 04:56:02;;;;;;;22.50;11.10;;;;;;;8.51;83.21;100135.58;130536;1285;98115;-82
2021/11/19 04:59:07;;;;;;;17.70;10.10;;;;;;;8.51;83.69;100144.14;130315;1285;99076;-83
2021/11/19 05:02:14;;;;;;;7.40;5.40;;;;;;;8.49;83.43;100138.83;130117;1285;98246;-82
2021/11/19 05:05:23;;;;;;;5.70;5.00;;;;;;;8.54;83.56;100149.67;130219;1285;99095;-82
2021/11/19 05:08:27;;;;;;;48.30;21.10;;;;;;;8.58;83.72;100141.86;130082;1285;98089;-82
2021/11/19 05:11:37;;;;;;;26.00;11.80;;;;;;;8.58;84.08;100138.78;130228;1285;98034;-82
2021/11/19 05:14:43;;;;;;;40.50;16.60;;;;;;;8.59;83.74;100150.27;130232;1285;99023;-82
2021/11/19 05:17:47;;;;;;;23.10;10.70;;;;;;;8.60;84.48;100145.39;129978;1287;98076;-83
2021/11/19 05:20:50;;;;;;;118.90;47.60;;;;;;;8.58;84.11;100133.83;130279;1285;98006;-82
2021/11/19 05:23:53;;;;;;;16.40;10.30;;;;;;;8.63;83.95;100117.91;130404;1285;98088;-82
2021/11/19 05:26:55;;;;;;;7.30;5.40;;;;;;;8.67;83.94;100125.91;130238;1285;98669;-82
2021/11/19 05:29:58;;;;;;;5.80;4.70;;;;;;;8.71;83.99;100146.73;130199;1285;98104;-82
2021/11/19 05:33:13;;;;;;;8.00;7.10;;;;;;;8.72;83.93;100136.14;130195;1285;99102;-82
2021/11/19 05:36:16;;;;;;;38.40;23.60;;;;;;;8.80;83.91;100133.44;130328;1285;100402;-82
2021/11/19 05:39:21;;;;;;;90.50;51.40;;;;;;;8.81;84.01;100136.34;129938;1285;97987;-82
2021/11/19 05:42:24;;;;;;;66.70;33.50;;;;;;;8.82;83.89;100138.42;130305;1285;99072;-80
2021/11/19 05:45:28;;;;;;;8.90;7.50;;;;;;;8.83;83.77;100142.49;129955;1285;98105;-81
2021/11/19 05:48:38;;;;;;;;;;;;;;;8.86;83.94;100145.06;130260;1285;98082;-82
2021/11/19 05:51:42;;;;;;;8.70;6.40;;;;;;;8.89;84.43;100147.13;130228;1285;99008;-82
2021/11/19 05:54:45;;;;;;;10.20;6.30;;;;;;;8.88;84.04;100145.42;130248;1284;98079;-82
2021/11/19 05:57:49;;;;;;;17.80;11.80;;;;;;;8.84;84.88;100147.73;130286;1285;99019;-83
2021/11/19 06:00:56;;;;;;;200.30;91.00;;;;;;;8.83;84.46;100140.87;130209;1281;98978;-83
2021/11/19 06:04:11;;;;;;;73.00;36.80;;;;;;;8.89;84.48;100140.52;130293;1285;98005;-82
2021/11/19 06:07:19;;;;;;;33.30;18.80;;;;;;;8.93;84.48;100139.48;130227;1285;98083;-82
2021/11/19 06:10:28;;;;;;;77.10;49.20;;;;;;;8.97;84.70;100147.25;130242;1285;121549;-82
2021/11/19 06:13:44;;;;;;;67.80;44.80;;;;;;;8.99;84.59;100141.71;130242;1285;99095;-82
2021/11/19 06:16:52;;;;;;;12.70;11.40;;;;;;;9.01;84.59;100143.66;130094;1285;98323;-82
2021/11/19 06:20:01;;;;;;;11.20;9.40;;;;;;;9.06;84.63;100132.96;130027;1285;99055;-82
2021/11/19 06:23:09;;;;;;;10.10;8.60;;;;;;;9.10;84.60;100131.45;130242;1284;98979;-82
2021/11/19 06:26:17;;;;;;;20.00;17.90;;;;;;;9.15;84.71;100126.25;130277;1285;97993;-82
2021/11/19 06:29:23;;;;;;;11.60;9.80;;;;;;;9.14;85.12;100126.11;130081;1285;98290;-82
2021/11/19 06:32:27;;;;;;;13.20;11.60;;;;;;;9.09;85.12;100131.42;130259;1285;98311;-82
2021/11/19 06:35:31;;;;;;;18.30;16.40;;;;;;;9.11;85.01;100135.65;130171;1286;97999;-81
2021/11/19 06:38:34;;;;;;;16.90;15.20;;;;;;;9.17;84.93;100141.11;130287;1284;98688;-82
2021/11/19 06:41:43;;;;;;;12.70;10.90;;;;;;;9.19;85.01;100145.48;130416;1281;97996;-80
2021/11/19 06:44:55;;;;;;;10.50;8.90;;;;;;;9.13;85.40;100149.99;130364;1285;98906;-82
2021/11/19 06:48:20;;;;;;;10.50;8.60;;;;;;;9.09;85.70;100156.23;130422;1285;98988;-80
2021/11/19 06:51:36;;;;;;;7.80;6.90;;;;;;;9.12;85.68;100162.05;130452;1285;98574;-80
2021/11/19 06:54:57;;;;;;;7.70;6.50;;;;;;;9.19;85.50;100168.74;130331;1285;98002;-81
2021/11/19 06:58:16;;;;;;;8.10;6.20;;;;;;;9.21;85.23;100184.85;130251;1285;98190;-81
2021/11/19 07:01:19;;;;;;;6.30;5.60;;;;;;;9.22;85.59;100182.13;130302;1285;99069;-82
2021/11/19 07:04:21;;;;;;;8.70;7.50;;;;;;;9.27;85.72;100181.48;130379;1285;98867;-80
2021/11/19 07:07:25;;;;;;;8.60;7.70;;;;;;;9.33;85.56;100167.98;130428;1285;99070;-81
2021/11/19 07:10:29;;;;;;;7.90;7.10;;;;;;;9.37;85.63;100162.94;130099;1285;98079;-82
2021/11/19 07:13:32;;;;;;;8.00;6.60;;;;;;;9.41;85.60;100163.60;130112;1285;99755;-82
2021/11/19 07:16:36;;;;;;;8.80;6.80;;;;;;;9.40;85.67;100155.02;130423;1284;98698;-82
2021/11/19 07:19:40;;;;;;;8.90;8.00;;;;;;;9.46;85.40;100159.28;130364;1285;98101;-82
2021/11/19 07:22:43;;;;;;;8.30;7.40;;;;;;;9.51;85.35;100158.95;130299;1285;99076;-82
2021/11/19 07:25:47;;;;;;;7.20;6.30;;;;;;;9.52;85.81;100162.91;130040;1285;99082;-81
2021/11/19 07:28:51;;;;;;;10.00;8.00;;;;;;;9.51;85.54;100164.13;130254;1285;99056;-82
2021/11/19 07:32:15;;;;;;;7.50;6.10;;;;;;;9.55;85.83;100168.54;130025;1285;98381;-81
2021/11/19 07:35:32;;;;;;;7.90;6.80;;;;;;;9.58;85.87;100169.63;130271;1285;99056;-82
2021/11/19 07:39:00;;;;;;;8.50;7.50;;;;;;;9.61;86.06;100176.60;130282;1285;99093;-82
2021/11/19 07:42:29;;;;;;;8.20;6.90;;;;;;;9.61;85.88;100180.67;130023;1285;98415;-82
2021/11/19 07:45:48;;;;;;;7.70;6.50;;;;;;;9.60;86.24;100189.91;130198;1285;98965;-83
2021/11/19 07:49:00;;;;;;;9.50;7.50;;;;;;;9.59;86.36;100193.36;130365;1285;98009;-82
2021/11/19 07:52:06;;;;;;;10.20;8.70;;;;;;;9.58;86.38;100188.63;130270;1285;99117;-83
2021/11/19 07:55:10;;;;;;;9.70;7.60;;;;;;;9.59;86.46;100186.77;130275;1282;98410;-83
2021/11/19 07:58:14;;;;;;;8.20;6.70;;;;;;;9.58;86.31;100184.55;130291;1285;98467;-82
2021/11/19 08:01:17;;;;;;;9.30;7.30;;;;;;;9.64;86.52;100189.16;130309;1285;99088;-82
2021/11/19 08:04:20;;;;;;;8.70;7.60;;;;;;;9.71;86.40;100193.37;130248;1285;98656;-83
2021/11/19 08:07:23;;;;;;;11.40;9.30;;;;;;;9.74;86.61;100194.35;130349;1285;97986;-81
2021/11/19 08:10:27;;;;;;;9.40;7.00;;;;;;;9.78;86.27;100191.40;130407;1285;99074;-81
2021/11/19 08:13:30;;;;;;;8.60;7.00;;;;;;;9.81;86.33;100193.73;130013;1287;98898;-81
2021/11/19 08:16:37;;;;;;;8.70;7.30;;;;;;;9.88;86.25;100194.27;130063;1287;98096;-79
2021/11/19 08:19:55;;;;;;;10.90;8.00;;;;;;;9.95;86.01;100195.59;130337;1285;120986;-82
2021/11/19 08:22:59;;;;;;;8.30;6.30;;;;;;;9.98;86.03;100198.94;130095;1287;98996;-82
2021/11/19 08:26:17;;;;;;;10.10;8.10;;;;;;;9.96;86.22;100202.55;130293;1285;98009;-81
2021/11/19 08:29:22;;;;;;;8.00;6.80;;;;;;;9.98;86.10;100197.01;130276;1285;98785;-82
2021/11/19 08:32:26;;;;;;;7.90;6.30;;;;;;;10.05;86.23;100199.17;130322;1285;99107;-81
2021/11/19 08:35:30;;;;;;;8.50;6.80;;;;;;;10.11;86.33;100203.73;130233;1285;99104;-81
2021/11/19 08:38:33;;;;;;;10.90;8.20;;;;;;;10.09;86.26;100210.85;130163;1285;98286;-81
2021/11/19 08:41:36;;;;;;;9.60;7.50;;;;;;;10.13;86.08;100207.25;130186;1285;99075;-81
2021/11/19 08:44:39;;;;;;;10.70;8.50;;;;;;;10.16;86.16;100203.61;130227;1285;97992;-81
2021/11/19 08:47:42;;;;;;;13.40;11.60;;;;;;;10.17;85.69;100197.41;130281;1285;99073;-81
2021/11/19 08:50:45;;;;;;;16.00;12.30;;;;;;;10.23;85.94;100198.68;130286;1285;99169;-82
2021/11/19 08:53:49;;;;;;;12.80;8.80;;;;;;;10.21;85.96;100201.64;130244;1285;98070;-82
2021/11/19 08:56:54;;;;;;;38.60;28.30;;;;;;;10.22;86.09;100201.38;130405;1284;97997;-82
2021/11/19 08:59:57;;;;;;;34.00;24.90;;;;;;;10.24;86.14;100196.27;130438;1285;98025;-81
2021/11/19 09:03:00;;;;;;;29.20;21.80;;;;;;;10.24;86.12;100199.63;130332;1285;99113;-81
2021/11/19 09:06:06;;;;;;;17.70;14.40;;;;;;;10.22;86.11;100199.08;130017;1287;99117;-82
2021/11/19 09:09:11;;;;;;;10.90;8.60;;;;;;;10.23;86.34;100199.31;130374;1285;99096;-81
2021/11/19 09:12:15;;;;;;;12.70;10.50;;;;;;;10.25;86.20;100192.00;130458;1285;98020;-82
2021/11/19 09:15:20;;;;;;;8.70;7.20;;;;;;;10.29;86.36;100193.75;130366;1285;98885;-82
2021/11/19 09:18:33;;;;;;;7.10;6.40;;;;;;;10.28;86.51;100193.16;130391;1285;99069;-82
2021/11/19 09:21:38;;;;;;;;;;;;;;;10.25;86.46;100190.84;130308;1285;98965;-82
2021/11/19 09:24:41;;;;;;;11.50;9.40;;;;;;;10.26;86.55;100190.23;130431;1285;98076;-81
2021/11/19 09:27:44;;;;;;;7.00;6.30;;;;;;;10.32;86.75;100186.23;130291;1285;99091;-81
2021/11/19 09:30:50;;;;;;;45.60;27.40;;;;;;;10.35;86.34;100182.89;130340;1285;99152;-82
2021/11/19 09:33:53;;;;;;;36.20;19.50;;;;;;;10.33;86.54;100186.84;130424;1285;99128;-81
2021/11/19 09:36:56;;;;;;;103.80;49.00;;;;;;;10.31;86.45;100185.30;130419;1285;98015;-80
2021/11/19 09:39:58;;;;;;;24.20;14.90;;;;;;;10.33;86.21;100184.36;130066;1286;98980;-82
2021/11/19 09:43:11;;;;;;;9.90;6.50;;;;;;;10.39;86.12;100185.36;130257;1285;99027;-81
2021/11/19 09:46:32;;;;;;;;;;;;;;;10.40;86.37;100179.77;130265;1285;99064;-82
2021/11/19 09:49:59;;;;;;;8.40;5.40;;;;;;;10.37;86.32;100182.67;130010;1286;98266;-81
2021/11/19 09:53:44;;;;;;;4.80;3.90;;;;;;;10.40;86.52;100187.59;130382;1285;99085;-80
2021/11/19 09:57:12;;;;;;;7.70;4.20;;;;;;;10.45;86.19;100185.48;130288;1285;99069;-81
2021/11/19 10:00:24;;;;;;;6.90;4.30;;;;;;;10.44;86.63;100178.30;130436;1285;99069;-79
2021/11/19 10:03:46;;;;;;;4.30;3.20;;;;;;;10.44;86.48;100175.63;130380;1285;99030;-82
2021/11/19 10:06:51;;;;;;;;;;;;;;;10.46;86.62;100175.60;130137;1287;98083;-80
2021/11/19 10:10:09;;;;;;;3.90;2.80;;;;;;;10.49;86.69;100173.50;130021;1287;98405;-83
2021/11/19 10:13:22;;;;;;;3.10;2.50;;;;;;;10.49;86.77;100164.77;130246;1285;98005;-81
2021/11/19 10:16:32;;;;;;;4.70;3.80;;;;;;;10.51;86.48;100162.48;130035;1286;98994;-81
2021/11/19 10:19:38;;;;;;;5.70;3.80;;;;;;;10.53;86.43;100159.10;130120;1287;98039;-82
2021/11/19 10:22:50;;;;;;;5.40;4.60;;;;;;;10.54;86.52;100159.00;130393;1285;99069;-82
2021/11/19 10:26:00;;;;;;;5.40;4.70;;;;;;;10.54;86.47;100158.40;130211;1284;99067;-81
2021/11/19 10:29:07;;;;;;;4.80;3.80;;;;;;;10.57;86.63;100165.19;130283;1284;97996;-81
2021/11/19 10:32:12;;;;;;;4.80;4.10;;;;;;;10.60;86.48;100167.92;130343;1285;98776;-81
2021/11/19 10:35:33;;;;;;;4.30;3.70;;;;;;;10.55;86.72;100168.77;130221;1285;98310;-81
2021/11/19 10:39:17;;;;;;;5.20;4.30;;;;;;;10.53;86.88;100174.36;130007;1286;98090;-81
2021/11/19 10:42:52;;;;;;;5.70;4.70;;;;;;;10.47;87.68;100157.66;129727;1287;99088;-81
2021/11/19 10:46:23;;;;;;;6.20;5.40;;;;;;;10.47;87.44;100151.13;130304;1285;98089;-80
2021/11/19 10:49:55;;;;;;;5.90;4.50;;;;;;;10.53;87.09;100146.05;130172;1284;98891;-82
2021/11/19 10:53:30;;;;;;;7.50;5.50;;;;;;;10.58;87.04;100139.69;130194;1285;98926;-80
2021/11/19 10:56:57;;;;;;;6.30;5.60;;;;;;;10.58;87.23;100129.41;129937;1286;98751;-83
2021/11/19 11:00:14;;;;;;;7.40;6.10;;;;;;;10.65;87.01;100133.36;130175;1285;99088;-81
2021/11/19 11:03:21;;;;;;;7.30;5.70;;;;;;;10.65;87.52;100137.09;130115;1285;98351;-81
2021/11/19 11:06:35;;;;;;;8.50;6.10;;;;;;;10.64;87.56;100137.29;130038;1287;99098;-81
2021/11/19 11:09:44;;;;;;;8.20;6.60;;;;;;;10.69;87.52;100142.72;130336;1285;98994;-80
2021/11/19 11:12:52;;;;;;;8.20;6.80;;;;;;;10.69;87.70;100130.82;130347;1285;98629;-81
2021/11/19 11:15:59;;;;;;;7.90;6.60;;;;;;;10.67;87.91;100132.41;130167;1285;98754;-82
2021/11/19 11:19:15;;;;;;;8.10;6.40;;;;;;;10.66;87.91;100124.48;130368;1285;98705;-82
2021/11/19 11:22:21;;;;;;;8.50;7.10;;;;;;;10.69;88.00;100123.27;130057;1286;98127;-80
2021/11/19 11:25:29;;;;;;;8.70;7.10;;;;;;;10.76;87.89;100125.98;130374;1282;98663;-81
2021/11/19 11:28:47;;;;;;;7.40;6.30;;;;;;;10.79;87.91;100133.41;130336;1285;98659;-82
2021/11/19 11:32:00;;;;;;;10.50;7.80;;;;;;;10.76;88.46;100128.98;130267;1285;98276;-81
2021/11/19 11:35:15;;;;;;;8.70;7.20;;;;;;;10.77;88.36;100127.46;129980;1287;121522;-81
2021/11/19 11:38:29;;;;;;;10.60;7.90;;;;;;;10.82;88.45;100125.33;130403;1285;98146;-79
2021/11/19 11:41:35;;;;;;;9.30;7.30;;;;;;;10.85;88.14;100124.54;130326;1285;98742;-80
2021/11/19 11:44:41;;;;;;;9.90;7.10;;;;;;;10.85;88.28;100122.95;130169;1285;98614;-79
2021/11/19 11:48:00;;;;;;;8.70;6.40;;;;;;;10.87;88.18;100121.98;130016;1287;98836;-81
2021/11/19 11:51:10;;;;;;;10.20;7.70;;;;;;;10.92;88.17;100129.86;130365;1285;98118;-81
2021/11/19 11:54:21;;;;;;;9.00;7.50;;;;;;;10.94;88.17;100130.48;130426;1285;99088;-81
2021/11/19 11:57:44;;;;;;;8.10;6.90;;;;;;;10.87;88.28;100125.39;130240;1285;99042;-82
2021/11/19 12:01:02;;;;;;;10.80;6.90;;;;;;;10.85;88.23;100124.01;130316;1285;98269;-79
2021/11/19 12:04:12;;;;;;;7.70;6.70;;;;;;;10.90;88.30;100122.41;130492;1285;98006;-80
2021/11/19 12:07:26;;;;;;;7.10;6.40;;;;;;;11.00;88.38;100115.79;130033;1287;98765;-82
2021/11/19 12:10:41;;;;;;;7.20;6.40;;;;;;;11.07;88.27;100123.67;130245;1282;98156;-79
2021/11/19 12:13:48;;;;;;;7.70;5.90;;;;;;;11.00;88.20;100125.27;130202;1285;98308;-79
2021/11/19 12:17:00;;;;;;;6.90;6.20;;;;;;;10.99;88.56;100120.78;130286;1285;99095;-80
2021/11/19 12:20:09;;;;;;;6.90;6.20;;;;;;;11.06;88.48;100119.71;130349;1284;98005;-81
2021/11/19 12:23:24;;;;;;;7.10;5.50;;;;;;;11.10;88.22;100113.05;130264;1284;99071;-80
2021/11/19 12:26:52;;;;;;;6.80;5.70;;;;;;;11.11;88.09;100113.66;130306;1285;98648;-81
2021/11/19 12:30:02;;;;;;;7.10;5.80;;;;;;;11.10;88.04;100117.47;130319;1285;98006;-80
2021/11/19 12:33:09;;;;;;;8.10;6.10;;;;;;;11.12;88.39;100119.24;130251;1285;98069;-80
2021/11/19 12:36:16;;;;;;;6.40;5.20;;;;;;;11.06;88.39;100110.21;130216;1285;99199;-80
2021/11/19 12:39:19;;;;;;;7.80;6.20;;;;;;;11.08;88.35;100109.89;130425;1285;98968;-80
2021/11/19 12:42:26;;;;;;;7.50;6.10;;;;;;;11.06;88.35;100112.18;130111;1275;201590;-80
2021/11/19 12:45:33;;;;;;;7.30;6.30;;;;;;;11.05;88.45;100113.40;130201;1285;98098;-80
2021/11/19 12:49:04;;;;;;;7.40;6.10;;;;;;;11.04;88.46;100111.92;130083;1286;98657;-81
2021/11/19 12:52:12;;;;;;;7.20;5.80;;;;;;;11.05;88.46;100106.26;130360;1281;99584;-79
2021/11/19 12:55:33;;;;;;;6.60;5.50;;;;;;;11.08;88.17;100102.44;130128;1287;97980;-80
2021/11/19 12:58:38;;;;;;;7.30;6.10;;;;;;;11.09;88.41;100108.45;130002;1287;97977;-81
2021/11/19 13:02:13;;;;;;;7.10;6.20;;;;;;;11.08;88.54;100109.34;130382;1285;97980;-81
2021/11/19 13:05:23;;;;;;;6.90;6.10;;;;;;;11.09;88.16;100100.34;130355;1285;98766;-81
2021/11/19 13:08:41;;;;;;;7.10;6.40;;;;;;;11.08;88.28;100108.27;130416;1285;99091;-81
2021/11/19 13:11:59;;;;;;;7.70;6.60;;;;;;;11.10;88.18;100102.55;130090;1285;98034;-81
2021/11/19 13:15:29;;;;;;;10.00;7.00;;;;;;;11.10;88.13;100107.83;129957;1287;98150;-81
2021/11/19 13:18:43;;;;;;;8.90;7.10;;;;;;;11.06;88.27;100108.98;130024;1286;98129;-81
2021/11/19 13:21:57;;;;;;;8.90;6.90;;;;;;;11.05;88.31;100111.06;130423;1285;98458;-81
2021/11/19 13:25:04;;;;;;;8.60;7.40;;;;;;;11.08;88.58;100111.08;130306;1285;98718;-82
2021/11/19 13:28:08;;;;;;;8.40;6.70;;;;;;;11.07;88.87;100117.59;130243;1285;98082;-82
2021/11/19 13:31:30;;;;;;;11.60;8.40;;;;;;;11.10;88.00;100115.16;130213;1285;97999;-81
2021/11/19 13:34:47;;;;;;;12.20;9.70;;;;;;;11.12;88.38;100121.74;130022;1287;99003;-81
2021/11/19 13:38:12;;;;;;;11.70;9.20;;;;;;;11.12;88.75;100122.74;130042;1286;99069;-79
2021/11/19 13:41:27;;;;;;;10.00;8.00;;;;;;;11.07;88.72;100118.30;129969;1287;98792;-79
2021/11/19 13:45:02;;;;;;;12.00;8.50;;;;;;;11.06;88.62;100118.30;129944;1287;98179;-79
2021/11/19 13:48:21;;;;;;;11.00;9.10;;;;;;;11.07;88.57;100118.33;129701;1287;99232;-80
2021/11/19 13:51:55;;;;;;;10.20;8.70;;;;;;;11.12;88.64;100111.39;130047;1287;98002;-81
2021/11/19 13:55:17;;;;;;;12.50;9.00;;;;;;;11.10;88.68;100109.05;130284;1284;98276;-82
2021/11/19 13:58:33;;;;;;;11.40;9.00;;;;;;;11.08;88.52;100110.16;130232;1281;98912;-81
2021/11/19 14:01:41;;;;;;;16.20;12.90;;;;;;;11.08;88.84;100113.95;130065;1287;98770;-80
2021/11/19 14:04:49;;;;;;;16.20;12.80;;;;;;;11.10;88.71;100113.90;130410;1285;98030;-81
2021/11/19 14:07:56;;;;;;;51.80;34.10;;;;;;;11.11;88.62;100119.17;130500;1285;98290;-81
2021/11/19 14:11:03;;;;;;;21.80;14.60;;;;;;;11.10;88.50;100117.11;130272;1285;99037;-81
2021/11/19 14:14:16;;;;;;;20.50;13.90;;;;;;;11.08;88.86;100113.55;130239;1285;98014;-83
2021/11/19 14:17:37;;;;;;;27.30;19.30;;;;;;;11.08;88.70;100118.76;130352;1285;98029;-81
2021/11/19 14:24:11;;;;;;;13.10;9.90;;;;;;;11.03;88.99;100129.77;130082;1285;98296;-81
2021/11/19 14:27:19;;;;;;;11.90;9.60;;;;;;;11.01;89.07;100139.02;130440;1281;98009;-80
2021/11/19 14:30:28;;;;;;;13.20;10.40;;;;;;;11.00;89.05;100124.73;130304;1285;99072;-81
2021/11/19 14:33:35;;;;;;;11.60;8.90;;;;;;;10.98;88.74;100132.70;130169;1285;99244;-81
2021/11/19 14:36:49;;;;;;;14.70;10.60;;;;;;;10.98;89.02;100132.70;130260;1285;99092;-80